sensor_id;sensor_type;location;lat;lon;timestamp;P1;durP1;ratioP1;P2;durP2;ratioP2
65315;SDS011;51920;53.952;10.292;2022-07-10T00:02:04;3.03;;;1.23;;
65315;SDS011;51920;53.952;10.292;2022-07-10T00:04:30;3.60;;;1.30;;
65315;SDS011;51920;53.952;10.292;2022-07-10T00:06:55;6.82;;;1.30;;
65315;SDS011;51920;53.952;10.292;2022-07-10T00:09:23;4.47;;;1.30;;
65315;SDS011;51920;53.952;10.292;2022-07-10T00:11:49;3.92;;;1.20;;
65315;SDS011;51920;53.952;10.292;2022-07-10T00:14:15;4.20;;;1.50;;
65315;SDS011;51920;53.952;10.292;2022-07-10T00:16:40;3.47;;;1.40;;
65315;SDS011;51920;53.952;10.292;2022-07-10T00:19:06;3.50;;;1.30;;
65315;SDS011;51920;53.952;10.292;2022-07-10T00:21:31;5.83;;;1.40;;
65315;SDS011;51920;53.952;10.292;2022-07-10T00:23:57;4.40;;;1.40;;
65315;SDS011;51920;53.952;10.292;2022-07-10T00:26:22;4.63;;;1.33;;
65315;SDS011;51920;53.952;10.292;2022-07-10T00:28:48;4.17;;;1.33;;
65315;SDS011;51920;53.952;10.292;2022-07-10T00:31:13;2.33;;;1.27;;
65315;SDS011;51920;53.952;10.292;2022-07-10T00:33:38;3.27;;;1.10;;
65315;SDS011;51920;53.952;10.292;2022-07-10T00:36:04;4.70;;;1.10;;
65315;SDS011;51920;53.952;10.292;2022-07-10T00:38:31;5.37;;;1.30;;
65315;SDS011;51920;53.952;10.292;2022-07-10T00:40:57;6.45;;;1.35;;
65315;SDS011;51920;53.952;10.292;2022-07-10T00:43:22;4.47;;;1.50;;
65315;SDS011;51920;53.952;10.292;2022-07-10T00:45:48;4.27;;;1.37;;
65315;SDS011;51920;53.952;10.292;2022-07-10T00:48:14;5.15;;;1.30;;
65315;SDS011;51920;53.952;10.292;2022-07-10T00:50:39;4.47;;;1.30;;
65315;SDS011;51920;53.952;10.292;2022-07-10T00:53:06;3.60;;;1.52;;
65315;SDS011;51920;53.952;10.292;2022-07-10T00:55:32;4.45;;;1.33;;
65315;SDS011;51920;53.952;10.292;2022-07-10T00:58:00;3.90;;;1.30;;
65315;SDS011;51920;53.952;10.292;2022-07-10T01:00:26;3.40;;;1.10;;
65315;SDS011;51920;53.952;10.292;2022-07-10T01:02:52;4.32;;;1.20;;
65315;SDS011;51920;53.952;10.292;2022-07-10T01:05:19;5.07;;;1.52;;
65315;SDS011;51920;53.952;10.292;2022-07-10T01:07:44;3.10;;;1.23;;
65315;SDS011;51920;53.952;10.292;2022-07-10T01:10:09;5.67;;;1.43;;
65315;SDS011;51920;53.952;10.292;2022-07-10T01:12:35;3.85;;;1.15;;
65315;SDS011;51920;53.952;10.292;2022-07-10T01:15:01;5.73;;;1.50;;
65315;SDS011;51920;53.952;10.292;2022-07-10T01:17:26;8.27;;;1.35;;
65315;SDS011;51920;53.952;10.292;2022-07-10T01:19:54;3.83;;;1.40;;
65315;SDS011;51920;53.952;10.292;2022-07-10T01:22:20;5.43;;;1.20;;
65315;SDS011;51920;53.952;10.292;2022-07-10T01:24:45;6.17;;;1.63;;
65315;SDS011;51920;53.952;10.292;2022-07-10T01:27:10;3.90;;;1.37;;
65315;SDS011;51920;53.952;10.292;2022-07-10T01:29:36;5.13;;;1.40;;
65315;SDS011;51920;53.952;10.292;2022-07-10T01:32:02;5.07;;;1.30;;
65315;SDS011;51920;53.952;10.292;2022-07-10T01:34:28;4.85;;;1.30;;
65315;SDS011;51920;53.952;10.292;2022-07-10T01:36:53;6.50;;;1.47;;
65315;SDS011;51920;53.952;10.292;2022-07-10T01:39:19;5.85;;;1.60;;
65315;SDS011;51920;53.952;10.292;2022-07-10T01:41:44;5.33;;;1.50;;
65315;SDS011;51920;53.952;10.292;2022-07-10T01:44:10;4.90;;;1.50;;
65315;SDS011;51920;53.952;10.292;2022-07-10T01:46:42;5.10;;;1.40;;
65315;SDS011;51920;53.952;10.292;2022-07-10T01:49:08;4.80;;;1.30;;
65315;SDS011;51920;53.952;10.292;2022-07-10T01:51:34;6.47;;;1.47;;
65315;SDS011;51920;53.952;10.292;2022-07-10T01:53:59;5.37;;;1.40;;
65315;SDS011;51920;53.952;10.292;2022-07-10T01:56:25;4.67;;;1.40;;
65315;SDS011;51920;53.952;10.292;2022-07-10T01:58:50;3.95;;;1.45;;
65315;SDS011;51920;53.952;10.292;2022-07-10T02:01:15;5.23;;;1.40;;
65315;SDS011;51920;53.952;10.292;2022-07-10T02:03:41;4.03;;;1.50;;
65315;SDS011;51920;53.952;10.292;2022-07-10T02:06:25;5.18;;;1.50;;
65315;SDS011;51920;53.952;10.292;2022-07-10T02:08:50;9.60;;;1.97;;
65315;SDS011;51920;53.952;10.292;2022-07-10T02:11:16;7.18;;;1.67;;
65315;SDS011;51920;53.952;10.292;2022-07-10T02:13:41;5.10;;;1.70;;
65315;SDS011;51920;53.952;10.292;2022-07-10T02:16:07;6.50;;;1.60;;
65315;SDS011;51920;53.952;10.292;2022-07-10T02:18:32;6.80;;;1.63;;
65315;SDS011;51920;53.952;10.292;2022-07-10T02:20:58;4.80;;;1.60;;
65315;SDS011;51920;53.952;10.292;2022-07-10T02:23:23;6.50;;;1.80;;
65315;SDS011;51920;53.952;10.292;2022-07-10T02:25:49;6.67;;;1.80;;
65315;SDS011;51920;53.952;10.292;2022-07-10T02:28:14;7.18;;;2.08;;
65315;SDS011;51920;53.952;10.292;2022-07-10T02:30:40;6.03;;;1.60;;
65315;SDS011;51920;53.952;10.292;2022-07-10T02:33:07;6.65;;;1.88;;
65315;SDS011;51920;53.952;10.292;2022-07-10T02:35:32;5.20;;;1.60;;
65315;SDS011;51920;53.952;10.292;2022-07-10T02:37:57;6.97;;;1.90;;
65315;SDS011;51920;53.952;10.292;2022-07-10T02:40:23;15.25;;;1.90;;
65315;SDS011;51920;53.952;10.292;2022-07-10T02:42:48;6.77;;;1.80;;
65315;SDS011;51920;53.952;10.292;2022-07-10T02:45:14;7.80;;;2.20;;
65315;SDS011;51920;53.952;10.292;2022-07-10T02:47:39;8.50;;;2.23;;
65315;SDS011;51920;53.952;10.292;2022-07-10T02:50:05;6.00;;;1.90;;
65315;SDS011;51920;53.952;10.292;2022-07-10T02:52:31;6.10;;;1.95;;
65315;SDS011;51920;53.952;10.292;2022-07-10T02:54:57;5.73;;;2.00;;
65315;SDS011;51920;53.952;10.292;2022-07-10T02:57:22;11.43;;;2.43;;
65315;SDS011;51920;53.952;10.292;2022-07-10T02:59:48;10.90;;;2.00;;
65315;SDS011;51920;53.952;10.292;2022-07-10T03:02:14;7.93;;;2.13;;
65315;SDS011;51920;53.952;10.292;2022-07-10T03:04:40;8.27;;;1.90;;
65315;SDS011;51920;53.952;10.292;2022-07-10T03:07:05;8.13;;;2.10;;
65315;SDS011;51920;53.952;10.292;2022-07-10T03:09:30;8.13;;;2.60;;
65315;SDS011;51920;53.952;10.292;2022-07-10T03:11:56;7.80;;;2.42;;
65315;SDS011;51920;53.952;10.292;2022-07-10T03:14:21;8.03;;;2.27;;
65315;SDS011;51920;53.952;10.292;2022-07-10T03:16:46;6.83;;;2.30;;
65315;SDS011;51920;53.952;10.292;2022-07-10T03:19:12;7.47;;;2.00;;
65315;SDS011;51920;53.952;10.292;2022-07-10T03:21:37;10.40;;;2.45;;
65315;SDS011;51920;53.952;10.292;2022-07-10T03:24:03;9.03;;;2.07;;
65315;SDS011;51920;53.952;10.292;2022-07-10T03:26:28;10.03;;;2.50;;
65315;SDS011;51920;53.952;10.292;2022-07-10T03:28:54;8.40;;;2.35;;
65315;SDS011;51920;53.952;10.292;2022-07-10T03:31:20;10.87;;;2.40;;
65315;SDS011;51920;53.952;10.292;2022-07-10T03:33:45;9.95;;;2.30;;
65315;SDS011;51920;53.952;10.292;2022-07-10T03:36:11;13.30;;;2.30;;
65315;SDS011;51920;53.952;10.292;2022-07-10T03:38:38;11.52;;;2.75;;
65315;SDS011;51920;53.952;10.292;2022-07-10T03:41:03;10.23;;;2.50;;
65315;SDS011;51920;53.952;10.292;2022-07-10T03:43:29;10.70;;;2.60;;
65315;SDS011;51920;53.952;10.292;2022-07-10T03:45:54;9.25;;;2.63;;
65315;SDS011;51920;53.952;10.292;2022-07-10T03:48:21;9.67;;;2.60;;
65315;SDS011;51920;53.952;10.292;2022-07-10T03:50:49;10.48;;;2.35;;
65315;SDS011;51920;53.952;10.292;2022-07-10T03:53:15;8.80;;;2.50;;
65315;SDS011;51920;53.952;10.292;2022-07-10T03:55:41;8.95;;;2.30;;
65315;SDS011;51920;53.952;10.292;2022-07-10T03:58:07;11.90;;;2.80;;
65315;SDS011;51920;53.952;10.292;2022-07-10T04:00:32;7.40;;;2.53;;
65315;SDS011;51920;53.952;10.292;2022-07-10T04:03:01;10.30;;;2.33;;
65315;SDS011;51920;53.952;10.292;2022-07-10T04:05:29;11.55;;;2.75;;
65315;SDS011;51920;53.952;10.292;2022-07-10T04:07:55;8.43;;;2.77;;
65315;SDS011;51920;53.952;10.292;2022-07-10T04:10:22;10.00;;;2.50;;
65315;SDS011;51920;53.952;10.292;2022-07-10T04:12:48;12.73;;;2.60;;
65315;SDS011;51920;53.952;10.292;2022-07-10T04:15:13;14.77;;;3.53;;
65315;SDS011;51920;53.952;10.292;2022-07-10T04:17:39;10.10;;;2.53;;
65315;SDS011;51920;53.952;10.292;2022-07-10T04:20:04;8.20;;;2.57;;
65315;SDS011;51920;53.952;10.292;2022-07-10T04:22:31;12.63;;;2.45;;
65315;SDS011;51920;53.952;10.292;2022-07-10T04:24:56;13.23;;;2.50;;
65315;SDS011;51920;53.952;10.292;2022-07-10T04:27:21;12.23;;;2.70;;
65315;SDS011;51920;53.952;10.292;2022-07-10T04:29:47;9.73;;;2.78;;
65315;SDS011;51920;53.952;10.292;2022-07-10T04:32:13;8.73;;;2.27;;
65315;SDS011;51920;53.952;10.292;2022-07-10T04:34:39;6.53;;;2.13;;
65315;SDS011;51920;53.952;10.292;2022-07-10T04:37:04;10.50;;;2.40;;
65315;SDS011;51920;53.952;10.292;2022-07-10T04:39:30;9.20;;;2.33;;
65315;SDS011;51920;53.952;10.292;2022-07-10T04:41:56;6.93;;;2.30;;
65315;SDS011;51920;53.952;10.292;2022-07-10T04:44:21;10.57;;;2.40;;
65315;SDS011;51920;53.952;10.292;2022-07-10T04:46:47;13.77;;;2.50;;
65315;SDS011;51920;53.952;10.292;2022-07-10T04:49:13;7.47;;;2.33;;
65315;SDS011;51920;53.952;10.292;2022-07-10T04:51:38;9.10;;;2.60;;
65315;SDS011;51920;53.952;10.292;2022-07-10T04:54:04;7.72;;;2.10;;
65315;SDS011;51920;53.952;10.292;2022-07-10T04:56:29;8.43;;;2.07;;
65315;SDS011;51920;53.952;10.292;2022-07-10T04:58:55;6.73;;;1.90;;
65315;SDS011;51920;53.952;10.292;2022-07-10T05:01:20;13.10;;;2.10;;
65315;SDS011;51920;53.952;10.292;2022-07-10T05:03:46;9.88;;;2.10;;
65315;SDS011;51920;53.952;10.292;2022-07-10T05:06:11;9.00;;;1.83;;
65315;SDS011;51920;53.952;10.292;2022-07-10T05:08:37;9.10;;;2.13;;
65315;SDS011;51920;53.952;10.292;2022-07-10T05:11:02;12.48;;;2.97;;
65315;SDS011;51920;53.952;10.292;2022-07-10T05:13:27;9.80;;;2.10;;
65315;SDS011;51920;53.952;10.292;2022-07-10T05:15:53;7.73;;;2.07;;
65315;SDS011;51920;53.952;10.292;2022-07-10T05:18:18;11.20;;;2.00;;
65315;SDS011;51920;53.952;10.292;2022-07-10T05:20:44;9.67;;;2.20;;
65315;SDS011;51920;53.952;10.292;2022-07-10T05:23:12;9.32;;;3.20;;
65315;SDS011;51920;53.952;10.292;2022-07-10T05:25:38;9.60;;;1.60;;
65315;SDS011;51920;53.952;10.292;2022-07-10T05:28:04;10.32;;;2.17;;
65315;SDS011;51920;53.952;10.292;2022-07-10T05:30:30;8.77;;;2.30;;
65315;SDS011;51920;53.952;10.292;2022-07-10T05:32:56;9.63;;;2.22;;
65315;SDS011;51920;53.952;10.292;2022-07-10T05:35:21;14.10;;;2.23;;
65315;SDS011;51920;53.952;10.292;2022-07-10T05:37:47;9.93;;;1.90;;
65315;SDS011;51920;53.952;10.292;2022-07-10T05:40:12;7.00;;;1.83;;
65315;SDS011;51920;53.952;10.292;2022-07-10T05:42:38;8.90;;;2.00;;
65315;SDS011;51920;53.952;10.292;2022-07-10T05:45:04;8.13;;;1.90;;
65315;SDS011;51920;53.952;10.292;2022-07-10T05:47:31;8.10;;;1.70;;
65315;SDS011;51920;53.952;10.292;2022-07-10T05:49:58;7.75;;;2.55;;
65315;SDS011;51920;53.952;10.292;2022-07-10T05:52:24;8.53;;;2.17;;
65315;SDS011;51920;53.952;10.292;2022-07-10T05:54:50;8.45;;;1.77;;
65315;SDS011;51920;53.952;10.292;2022-07-10T05:57:16;11.85;;;2.08;;
65315;SDS011;51920;53.952;10.292;2022-07-10T05:59:41;8.90;;;1.77;;
65315;SDS011;51920;53.952;10.292;2022-07-10T06:02:07;10.73;;;2.00;;
65315;SDS011;51920;53.952;10.292;2022-07-10T06:04:32;7.10;;;1.50;;
65315;SDS011;51920;53.952;10.292;2022-07-10T06:06:58;6.85;;;1.50;;
65315;SDS011;51920;53.952;10.292;2022-07-10T06:09:24;10.40;;;1.87;;
65315;SDS011;51920;53.952;10.292;2022-07-10T06:11:49;9.57;;;1.90;;
65315;SDS011;51920;53.952;10.292;2022-07-10T06:14:15;8.00;;;1.67;;
65315;SDS011;51920;53.952;10.292;2022-07-10T06:16:40;8.63;;;1.53;;
65315;SDS011;51920;53.952;10.292;2022-07-10T06:19:05;8.37;;;1.60;;
65315;SDS011;51920;53.952;10.292;2022-07-10T06:21:31;6.43;;;1.47;;
65315;SDS011;51920;53.952;10.292;2022-07-10T06:23:56;9.27;;;1.60;;
65315;SDS011;51920;53.952;10.292;2022-07-10T06:26:22;7.15;;;1.52;;
65315;SDS011;51920;53.952;10.292;2022-07-10T06:28:47;10.37;;;1.87;;
65315;SDS011;51920;53.952;10.292;2022-07-10T06:31:13;6.93;;;1.50;;
65315;SDS011;51920;53.952;10.292;2022-07-10T06:33:38;6.25;;;1.60;;
65315;SDS011;51920;53.952;10.292;2022-07-10T06:36:04;9.23;;;2.00;;
65315;SDS011;51920;53.952;10.292;2022-07-10T06:38:30;10.65;;;1.88;;
65315;SDS011;51920;53.952;10.292;2022-07-10T06:40:56;8.57;;;1.40;;
65315;SDS011;51920;53.952;10.292;2022-07-10T06:43:21;8.63;;;1.80;;
65315;SDS011;51920;53.952;10.292;2022-07-10T06:45:47;8.83;;;1.57;;
65315;SDS011;51920;53.952;10.292;2022-07-10T06:48:13;7.35;;;1.73;;
65315;SDS011;51920;53.952;10.292;2022-07-10T06:50:39;10.00;;;1.65;;
65315;SDS011;51920;53.952;10.292;2022-07-10T06:53:05;9.87;;;1.50;;
65315;SDS011;51920;53.952;10.292;2022-07-10T06:55:31;6.57;;;1.70;;
65315;SDS011;51920;53.952;10.292;2022-07-10T06:57:57;6.93;;;1.45;;
65315;SDS011;51920;53.952;10.292;2022-07-10T07:00:23;4.03;;;1.37;;
65315;SDS011;51920;53.952;10.292;2022-07-10T07:02:49;7.18;;;1.50;;
65315;SDS011;51920;53.952;10.292;2022-07-10T07:05:14;6.03;;;1.30;;
65315;SDS011;51920;53.952;10.292;2022-07-10T07:07:40;6.13;;;1.50;;
65315;SDS011;51920;53.952;10.292;2022-07-10T07:10:07;6.82;;;1.40;;
65315;SDS011;51920;53.952;10.292;2022-07-10T07:12:33;7.37;;;1.30;;
65315;SDS011;51920;53.952;10.292;2022-07-10T07:14:59;8.75;;;1.42;;
65315;SDS011;51920;53.952;10.292;2022-07-10T07:17:25;7.32;;;1.65;;
65315;SDS011;51920;53.952;10.292;2022-07-10T07:19:58;5.57;;;1.43;;
65315;SDS011;51920;53.952;10.292;2022-07-10T07:22:42;6.97;;;1.38;;
65315;SDS011;51920;53.952;10.292;2022-07-10T07:25:26;11.65;;;1.70;;
65315;SDS011;51920;53.952;10.292;2022-07-10T07:27:52;7.90;;;1.53;;
65315;SDS011;51920;53.952;10.292;2022-07-10T07:30:17;6.72;;;1.50;;
65315;SDS011;51920;53.952;10.292;2022-07-10T07:32:43;7.40;;;1.57;;
65315;SDS011;51920;53.952;10.292;2022-07-10T07:35:10;4.43;;;1.50;;
65315;SDS011;51920;53.952;10.292;2022-07-10T07:37:37;6.67;;;1.80;;
65315;SDS011;51920;53.952;10.292;2022-07-10T07:40:07;9.57;;;1.40;;
65315;SDS011;51920;53.952;10.292;2022-07-10T07:42:33;7.38;;;1.70;;
65315;SDS011;51920;53.952;10.292;2022-07-10T07:44:59;8.07;;;1.30;;
65315;SDS011;51920;53.952;10.292;2022-07-10T07:47:25;7.15;;;1.30;;
65315;SDS011;51920;53.952;10.292;2022-07-10T07:49:50;8.60;;;1.40;;
65315;SDS011;51920;53.952;10.292;2022-07-10T07:52:16;6.47;;;1.23;;
65315;SDS011;51920;53.952;10.292;2022-07-10T07:54:41;7.20;;;1.30;;
65315;SDS011;51920;53.952;10.292;2022-07-10T07:57:06;6.90;;;1.60;;
65315;SDS011;51920;53.952;10.292;2022-07-10T07:59:32;6.87;;;1.47;;
65315;SDS011;51920;53.952;10.292;2022-07-10T08:01:58;7.10;;;1.30;;
65315;SDS011;51920;53.952;10.292;2022-07-10T08:04:23;6.93;;;1.30;;
65315;SDS011;51920;53.952;10.292;2022-07-10T08:06:48;5.63;;;1.20;;
65315;SDS011;51920;53.952;10.292;2022-07-10T08:09:18;9.52;;;1.60;;
65315;SDS011;51920;53.952;10.292;2022-07-10T08:11:44;7.25;;;1.48;;
65315;SDS011;51920;53.952;10.292;2022-07-10T08:14:09;7.47;;;1.60;;
65315;SDS011;51920;53.952;10.292;2022-07-10T08:16:35;7.60;;;1.50;;
65315;SDS011;51920;53.952;10.292;2022-07-10T08:19:00;5.27;;;1.20;;
65315;SDS011;51920;53.952;10.292;2022-07-10T08:21:25;4.55;;;1.23;;
65315;SDS011;51920;53.952;10.292;2022-07-10T08:23:51;5.33;;;1.30;;
65315;SDS011;51920;53.952;10.292;2022-07-10T08:26:18;6.10;;;1.25;;
65315;SDS011;51920;53.952;10.292;2022-07-10T08:28:44;6.30;;;1.30;;
65315;SDS011;51920;53.952;10.292;2022-07-10T08:31:09;10.03;;;2.57;;
65315;SDS011;51920;53.952;10.292;2022-07-10T08:33:34;9.18;;;1.52;;
65315;SDS011;51920;53.952;10.292;2022-07-10T08:36:00;7.20;;;1.30;;
65315;SDS011;51920;53.952;10.292;2022-07-10T08:38:26;7.60;;;1.40;;
65315;SDS011;51920;53.952;10.292;2022-07-10T08:40:51;6.13;;;1.23;;
65315;SDS011;51920;53.952;10.292;2022-07-10T08:43:22;5.17;;;1.40;;
65315;SDS011;51920;53.952;10.292;2022-07-10T08:45:50;6.30;;;1.20;;
65315;SDS011;51920;53.952;10.292;2022-07-10T08:48:21;5.25;;;1.10;;
65315;SDS011;51920;53.952;10.292;2022-07-10T08:50:50;6.75;;;1.33;;
65315;SDS011;51920;53.952;10.292;2022-07-10T08:53:28;6.10;;;1.35;;
65315;SDS011;51920;53.952;10.292;2022-07-10T08:55:55;7.80;;;1.20;;
65315;SDS011;51920;53.952;10.292;2022-07-10T08:58:22;9.00;;;1.58;;
65315;SDS011;51920;53.952;10.292;2022-07-10T09:00:48;6.20;;;1.70;;
65315;SDS011;51920;53.952;10.292;2022-07-10T09:03:13;6.30;;;1.40;;
65315;SDS011;51920;53.952;10.292;2022-07-10T09:05:40;6.75;;;1.38;;
65315;SDS011;51920;53.952;10.292;2022-07-10T09:08:28;4.77;;;1.07;;
65315;SDS011;51920;53.952;10.292;2022-07-10T09:11:02;4.75;;;1.13;;
65315;SDS011;51920;53.952;10.292;2022-07-10T09:13:48;4.05;;;1.08;;
65315;SDS011;51920;53.952;10.292;2022-07-10T09:16:21;5.28;;;1.05;;
65315;SDS011;51920;53.952;10.292;2022-07-10T09:18:46;6.93;;;1.50;;
65315;SDS011;51920;53.952;10.292;2022-07-10T09:21:12;5.70;;;1.20;;
65315;SDS011;51920;53.952;10.292;2022-07-10T09:23:37;4.87;;;1.17;;
65315;SDS011;51920;53.952;10.292;2022-07-10T09:26:03;4.87;;;1.20;;
65315;SDS011;51920;53.952;10.292;2022-07-10T09:28:29;5.63;;;1.20;;
65315;SDS011;51920;53.952;10.292;2022-07-10T09:30:54;6.80;;;1.30;;
65315;SDS011;51920;53.952;10.292;2022-07-10T09:33:28;4.00;;;1.13;;
65315;SDS011;51920;53.952;10.292;2022-07-10T09:36:05;7.30;;;1.48;;
65315;SDS011;51920;53.952;10.292;2022-07-10T09:41:11;8.48;;;1.33;;
65315;SDS011;51920;53.952;10.292;2022-07-10T09:43:56;7.80;;;1.40;;
65315;SDS011;51920;53.952;10.292;2022-07-10T09:46:24;6.97;;;1.52;;
65315;SDS011;51920;53.952;10.292;2022-07-10T09:51:33;5.43;;;1.20;;
65315;SDS011;51920;53.952;10.292;2022-07-10T09:54:02;6.55;;;1.02;;
65315;SDS011;51920;53.952;10.292;2022-07-10T09:56:39;6.65;;;1.30;;
65315;SDS011;51920;53.952;10.292;2022-07-10T09:59:08;5.53;;;1.35;;
65315;SDS011;51920;53.952;10.292;2022-07-10T10:01:35;8.73;;;1.52;;
65315;SDS011;51920;53.952;10.292;2022-07-10T10:04:02;2.90;;;1.10;;
65315;SDS011;51920;53.952;10.292;2022-07-10T10:06:30;5.20;;;1.02;;
65315;SDS011;51920;53.952;10.292;2022-07-10T10:11:40;4.57;;;1.20;;
65315;SDS011;51920;53.952;10.292;2022-07-10T10:14:08;5.70;;;1.25;;
65315;SDS011;51920;53.952;10.292;2022-07-10T10:16:33;5.33;;;1.23;;
65315;SDS011;51920;53.952;10.292;2022-07-10T10:19:00;5.55;;;1.40;;
65315;SDS011;51920;53.952;10.292;2022-07-10T10:21:45;7.97;;;1.30;;
65315;SDS011;51920;53.952;10.292;2022-07-10T10:24:11;5.20;;;1.43;;
65315;SDS011;51920;53.952;10.292;2022-07-10T10:26:38;3.95;;;1.30;;
65315;SDS011;51920;53.952;10.292;2022-07-10T10:29:05;6.13;;;1.40;;
65315;SDS011;51920;53.952;10.292;2022-07-10T10:31:31;10.60;;;1.20;;
65315;SDS011;51920;53.952;10.292;2022-07-10T10:33:58;5.97;;;1.30;;
65315;SDS011;51920;53.952;10.292;2022-07-10T10:39:16;3.95;;;1.15;;
65315;SDS011;51920;53.952;10.292;2022-07-10T10:44:19;7.18;;;1.42;;
65315;SDS011;51920;53.952;10.292;2022-07-10T10:49:50;5.78;;;1.40;;
65315;SDS011;51920;53.952;10.292;2022-07-10T10:52:22;7.78;;;1.38;;
65315;SDS011;51920;53.952;10.292;2022-07-10T10:59:57;5.77;;;1.40;;
65315;SDS011;51920;53.952;10.292;2022-07-10T11:02:25;6.60;;;1.17;;
65315;SDS011;51920;53.952;10.292;2022-07-10T11:08:00;3.13;;;1.00;;
65315;SDS011;51920;53.952;10.292;2022-07-10T11:10:29;2.90;;;1.10;;
65315;SDS011;51920;53.952;10.292;2022-07-10T11:13:13;5.80;;;1.63;;
65315;SDS011;51920;53.952;10.292;2022-07-10T11:15:43;4.97;;;1.40;;
65315;SDS011;51920;53.952;10.292;2022-07-10T11:18:10;6.82;;;1.60;;
65315;SDS011;51920;53.952;10.292;2022-07-10T11:20:43;7.00;;;1.40;;
65315;SDS011;51920;53.952;10.292;2022-07-10T11:26:05;4.37;;;1.33;;
65315;SDS011;51920;53.952;10.292;2022-07-10T11:31:23;7.03;;;1.45;;
65315;SDS011;51920;53.952;10.292;2022-07-10T11:33:51;5.53;;;1.50;;
65315;SDS011;51920;53.952;10.292;2022-07-10T11:36:21;5.15;;;1.38;;
65315;SDS011;51920;53.952;10.292;2022-07-10T11:38:59;4.73;;;1.13;;
65315;SDS011;51920;53.952;10.292;2022-07-10T11:41:26;7.97;;;1.40;;
65315;SDS011;51920;53.952;10.292;2022-07-10T11:46:20;7.93;;;1.60;;
65315;SDS011;51920;53.952;10.292;2022-07-10T11:48:49;10.30;;;1.70;;
65315;SDS011;51920;53.952;10.292;2022-07-10T11:51:19;6.78;;;1.42;;
65315;SDS011;51920;53.952;10.292;2022-07-10T11:56:24;6.60;;;1.40;;
65315;SDS011;51920;53.952;10.292;2022-07-10T11:58:54;6.45;;;1.50;;
65315;SDS011;51920;53.952;10.292;2022-07-10T12:01:24;8.63;;;1.50;;
65315;SDS011;51920;53.952;10.292;2022-07-10T12:03:57;4.22;;;1.20;;
65315;SDS011;51920;53.952;10.292;2022-07-10T12:06:28;6.07;;;1.35;;
65315;SDS011;51920;53.952;10.292;2022-07-10T12:08:55;6.78;;;1.42;;
65315;SDS011;51920;53.952;10.292;2022-07-10T12:11:21;10.77;;;1.60;;
65315;SDS011;51920;53.952;10.292;2022-07-10T12:13:47;6.22;;;1.50;;
65315;SDS011;51920;53.952;10.292;2022-07-10T12:16:15;5.82;;;1.35;;
65315;SDS011;51920;53.952;10.292;2022-07-10T12:18:41;3.97;;;1.20;;
65315;SDS011;51920;53.952;10.292;2022-07-10T12:21:11;5.63;;;1.30;;
65315;SDS011;51920;53.952;10.292;2022-07-10T12:23:37;4.13;;;1.10;;
65315;SDS011;51920;53.952;10.292;2022-07-10T12:26:09;4.35;;;1.20;;
65315;SDS011;51920;53.952;10.292;2022-07-10T12:28:52;5.10;;;1.30;;
65315;SDS011;51920;53.952;10.292;2022-07-10T12:31:22;7.32;;;1.38;;
65315;SDS011;51920;53.952;10.292;2022-07-10T12:33:56;4.10;;;1.00;;
65315;SDS011;51920;53.952;10.292;2022-07-10T12:36:40;4.47;;;1.35;;
65315;SDS011;51920;53.952;10.292;2022-07-10T12:39:07;5.13;;;1.67;;
65315;SDS011;51920;53.952;10.292;2022-07-10T12:41:33;5.93;;;1.30;;
65315;SDS011;51920;53.952;10.292;2022-07-10T12:43:58;5.00;;;1.20;;
65315;SDS011;51920;53.952;10.292;2022-07-10T12:46:24;3.83;;;1.17;;
65315;SDS011;51920;53.952;10.292;2022-07-10T12:49:02;5.37;;;1.13;;
65315;SDS011;51920;53.952;10.292;2022-07-10T12:51:33;4.35;;;1.20;;
65315;SDS011;51920;53.952;10.292;2022-07-10T12:54:07;3.03;;;1.10;;
65315;SDS011;51920;53.952;10.292;2022-07-10T12:56:36;7.13;;;1.43;;
65315;SDS011;51920;53.952;10.292;2022-07-10T12:59:13;5.43;;;1.40;;
65315;SDS011;51920;53.952;10.292;2022-07-10T13:01:40;4.50;;;1.20;;
65315;SDS011;51920;53.952;10.292;2022-07-10T13:04:06;4.35;;;1.30;;
65315;SDS011;51920;53.952;10.292;2022-07-10T13:06:33;3.80;;;1.13;;
65315;SDS011;51920;53.952;10.292;2022-07-10T13:09:01;3.90;;;1.40;;
65315;SDS011;51920;53.952;10.292;2022-07-10T13:11:27;5.22;;;1.35;;
65315;SDS011;51920;53.952;10.292;2022-07-10T13:13:53;4.67;;;1.40;;
65315;SDS011;51920;53.952;10.292;2022-07-10T13:16:19;3.25;;;1.17;;
65315;SDS011;51920;53.952;10.292;2022-07-10T13:18:46;5.50;;;1.10;;
65315;SDS011;51920;53.952;10.292;2022-07-10T13:21:11;4.40;;;1.30;;
65315;SDS011;51920;53.952;10.292;2022-07-10T13:23:37;5.88;;;1.40;;
65315;SDS011;51920;53.952;10.292;2022-07-10T13:26:04;5.63;;;1.33;;
65315;SDS011;51920;53.952;10.292;2022-07-10T13:28:34;5.88;;;1.30;;
65315;SDS011;51920;53.952;10.292;2022-07-10T13:30:59;6.30;;;1.25;;
65315;SDS011;51920;53.952;10.292;2022-07-10T13:33:25;7.30;;;1.90;;
65315;SDS011;51920;53.952;10.292;2022-07-10T13:35:51;3.60;;;1.30;;
65315;SDS011;51920;53.952;10.292;2022-07-10T13:38:16;5.05;;;1.55;;
65315;SDS011;51920;53.952;10.292;2022-07-10T13:40:45;7.07;;;1.30;;
65315;SDS011;51920;53.952;10.292;2022-07-10T13:43:12;3.60;;;1.27;;
65315;SDS011;51920;53.952;10.292;2022-07-10T13:45:38;4.90;;;1.60;;
65315;SDS011;51920;53.952;10.292;2022-07-10T13:48:11;5.43;;;1.27;;
65315;SDS011;51920;53.952;10.292;2022-07-10T13:50:45;3.85;;;1.33;;
65315;SDS011;51920;53.952;10.292;2022-07-10T13:53:12;4.13;;;1.30;;
65315;SDS011;51920;53.952;10.292;2022-07-10T13:55:38;3.88;;;1.35;;
65315;SDS011;51920;53.952;10.292;2022-07-10T13:58:04;5.47;;;1.10;;
65315;SDS011;51920;53.952;10.292;2022-07-10T14:00:30;3.53;;;1.20;;
65315;SDS011;51920;53.952;10.292;2022-07-10T14:02:55;5.03;;;1.15;;
65315;SDS011;51920;53.952;10.292;2022-07-10T14:05:22;4.70;;;1.45;;
65315;SDS011;51920;53.952;10.292;2022-07-10T14:07:48;4.43;;;1.30;;
65315;SDS011;51920;53.952;10.292;2022-07-10T14:10:14;5.18;;;1.27;;
65315;SDS011;51920;53.952;10.292;2022-07-10T14:12:40;4.60;;;1.37;;
65315;SDS011;51920;53.952;10.292;2022-07-10T14:15:06;4.03;;;1.35;;
65315;SDS011;51920;53.952;10.292;2022-07-10T14:17:32;4.45;;;1.20;;
65315;SDS011;51920;53.952;10.292;2022-07-10T14:19:58;2.67;;;1.10;;
65315;SDS011;51920;53.952;10.292;2022-07-10T14:22:23;7.13;;;1.40;;
65315;SDS011;51920;53.952;10.292;2022-07-10T14:24:49;5.55;;;1.35;;
65315;SDS011;51920;53.952;10.292;2022-07-10T14:27:16;5.05;;;1.50;;
65315;SDS011;51920;53.952;10.292;2022-07-10T14:29:42;5.50;;;1.30;;
65315;SDS011;51920;53.952;10.292;2022-07-10T14:32:07;6.37;;;1.30;;
65315;SDS011;51920;53.952;10.292;2022-07-10T14:34:33;5.40;;;1.50;;
65315;SDS011;51920;53.952;10.292;2022-07-10T14:36:58;6.10;;;1.60;;
65315;SDS011;51920;53.952;10.292;2022-07-10T14:39:24;8.07;;;1.58;;
65315;SDS011;51920;53.952;10.292;2022-07-10T14:41:49;3.87;;;1.03;;
65315;SDS011;51920;53.952;10.292;2022-07-10T14:44:15;7.83;;;1.40;;
65315;SDS011;51920;53.952;10.292;2022-07-10T14:46:40;6.47;;;1.40;;
65315;SDS011;51920;53.952;10.292;2022-07-10T14:49:05;7.93;;;1.70;;
65315;SDS011;51920;53.952;10.292;2022-07-10T14:51:31;4.07;;;1.13;;
65315;SDS011;51920;53.952;10.292;2022-07-10T14:53:56;2.30;;;1.20;;
65315;SDS011;51920;53.952;10.292;2022-07-10T14:56:22;4.72;;;1.02;;
65315;SDS011;51920;53.952;10.292;2022-07-10T14:58:48;5.30;;;1.27;;
65315;SDS011;51920;53.952;10.292;2022-07-10T15:01:14;5.13;;;1.30;;
65315;SDS011;51920;53.952;10.292;2022-07-10T15:03:40;6.05;;;1.42;;
65315;SDS011;51920;53.952;10.292;2022-07-10T15:06:06;4.45;;;1.40;;
65315;SDS011;51920;53.952;10.292;2022-07-10T15:08:32;5.30;;;1.40;;